sensor_id;sensor_type;location;lat;lon;timestamp;P1;durP1;ratioP1;P2;durP2;ratioP2
22648;SDS011;11491;41.942;24.220;2023-09-08T00:02:08;20.67;;;13.98;;
22648;SDS011;11491;41.942;24.220;2023-09-08T00:04:35;17.95;;;14.27;;
22648;SDS011;11491;41.942;24.220;2023-09-08T00:07:04;15.95;;;13.77;;
22648;SDS011;11491;41.942;24.220;2023-09-08T00:09:30;17.92;;;14.15;;
22648;SDS011;11491;41.942;24.220;2023-09-08T00:11:57;20.90;;;15.10;;
22648;SDS011;11491;41.942;24.220;2023-09-08T00:14:24;21.17;;;15.85;;
22648;SDS011;11491;41.942;24.220;2023-09-08T00:16:51;24.35;;;16.40;;
22648;SDS011;11491;41.942;24.220;2023-09-08T00:19:19;19.60;;;15.57;;
22648;SDS011;11491;41.942;24.220;2023-09-08T00:21:46;18.45;;;14.43;;
22648;SDS011;11491;41.942;24.220;2023-09-08T00:24:15;20.98;;;15.65;;
22648;SDS011;11491;41.942;24.220;2023-09-08T00:26:42;24.17;;;16.38;;
22648;SDS011;11491;41.942;24.220;2023-09-08T00:29:09;19.05;;;14.35;;
22648;SDS011;11491;41.942;24.220;2023-09-08T00:31:36;19.25;;;15.30;;
22648;SDS011;11491;41.942;24.220;2023-09-08T00:34:03;23.02;;;14.75;;
22648;SDS011;11491;41.942;24.220;2023-09-08T00:36:30;20.85;;;13.93;;
22648;SDS011;11491;41.942;24.220;2023-09-08T00:38:57;15.65;;;14.00;;
22648;SDS011;11491;41.942;24.220;2023-09-08T00:41:25;20.13;;;13.65;;
22648;SDS011;11491;41.942;24.220;2023-09-08T00:43:52;18.77;;;12.88;;
22648;SDS011;11491;41.942;24.220;2023-09-08T00:46:18;20.23;;;12.98;;
22648;SDS011;11491;41.942;24.220;2023-09-08T00:48:45;20.05;;;12.98;;
22648;SDS011;11491;41.942;24.220;2023-09-08T00:51:12;17.90;;;13.40;;
22648;SDS011;11491;41.942;24.220;2023-09-08T00:53:39;18.98;;;13.20;;
22648;SDS011;11491;41.942;24.220;2023-09-08T00:56:06;20.58;;;12.38;;
22648;SDS011;11491;41.942;24.220;2023-09-08T00:58:36;16.55;;;12.93;;
22648;SDS011;11491;41.942;24.220;2023-09-08T01:01:03;17.70;;;13.35;;
22648;SDS011;11491;41.942;24.220;2023-09-08T01:03:31;21.67;;;14.43;;
22648;SDS011;11491;41.942;24.220;2023-09-08T01:05:58;16.52;;;13.13;;
22648;SDS011;11491;41.942;24.220;2023-09-08T01:08:26;17.92;;;13.18;;
22648;SDS011;11491;41.942;24.220;2023-09-08T01:10:54;16.23;;;11.88;;
22648;SDS011;11491;41.942;24.220;2023-09-08T01:13:21;18.10;;;13.40;;
22648;SDS011;11491;41.942;24.220;2023-09-08T01:15:50;15.82;;;12.75;;
22648;SDS011;11491;41.942;24.220;2023-09-08T01:18:16;17.48;;;13.40;;
22648;SDS011;11491;41.942;24.220;2023-09-08T01:20:48;16.33;;;12.80;;
22648;SDS011;11491;41.942;24.220;2023-09-08T01:23:34;15.93;;;13.25;;
22648;SDS011;11491;41.942;24.220;2023-09-08T01:26:14;15.82;;;13.07;;
22648;SDS011;11491;41.942;24.220;2023-09-08T01:28:45;17.73;;;13.07;;
22648;SDS011;11491;41.942;24.220;2023-09-08T01:31:33;25.20;;;13.55;;
22648;SDS011;11491;41.942;24.220;2023-09-08T01:34:20;19.80;;;14.20;;
22648;SDS011;11491;41.942;24.220;2023-09-08T01:36:47;23.83;;;13.88;;
22648;SDS011;11491;41.942;24.220;2023-09-08T01:39:14;16.17;;;12.93;;
22648;SDS011;11491;41.942;24.220;2023-09-08T01:41:42;16.60;;;13.32;;
22648;SDS011;11491;41.942;24.220;2023-09-08T01:44:09;17.40;;;13.52;;
22648;SDS011;11491;41.942;24.220;2023-09-08T01:46:37;18.17;;;13.00;;
22648;SDS011;11491;41.942;24.220;2023-09-08T01:49:03;18.50;;;14.30;;
22648;SDS011;11491;41.942;24.220;2023-09-08T01:51:30;17.58;;;12.38;;
22648;SDS011;11491;41.942;24.220;2023-09-08T01:53:57;16.27;;;12.90;;
22648;SDS011;11491;41.942;24.220;2023-09-08T01:56:24;19.85;;;13.68;;
22648;SDS011;11491;41.942;24.220;2023-09-08T01:58:52;19.67;;;12.70;;
22648;SDS011;11491;41.942;24.220;2023-09-08T02:01:19;17.85;;;12.98;;
22648;SDS011;11491;41.942;24.220;2023-09-08T02:03:47;15.88;;;11.98;;
22648;SDS011;11491;41.942;24.220;2023-09-08T02:06:15;16.23;;;12.23;;
22648;SDS011;11491;41.942;24.220;2023-09-08T02:08:42;14.65;;;13.15;;
22648;SDS011;11491;41.942;24.220;2023-09-08T02:11:09;15.95;;;12.70;;
22648;SDS011;11491;41.942;24.220;2023-09-08T02:13:36;15.05;;;12.20;;
22648;SDS011;11491;41.942;24.220;2023-09-08T02:16:04;19.50;;;12.90;;
22648;SDS011;11491;41.942;24.220;2023-09-08T02:18:32;14.55;;;11.65;;
22648;SDS011;11491;41.942;24.220;2023-09-08T02:20:58;16.15;;;12.15;;
22648;SDS011;11491;41.942;24.220;2023-09-08T02:23:25;17.10;;;12.00;;
22648;SDS011;11491;41.942;24.220;2023-09-08T02:25:53;17.92;;;13.30;;
22648;SDS011;11491;41.942;24.220;2023-09-08T02:28:20;19.75;;;13.20;;
22648;SDS011;11491;41.942;24.220;2023-09-08T02:30:47;17.80;;;13.25;;
22648;SDS011;11491;41.942;24.220;2023-09-08T02:33:17;16.42;;;12.80;;
22648;SDS011;11491;41.942;24.220;2023-09-08T02:35:50;18.63;;;12.13;;
22648;SDS011;11491;41.942;24.220;2023-09-08T02:38:17;14.38;;;12.27;;
22648;SDS011;11491;41.942;24.220;2023-09-08T02:40:59;21.60;;;12.63;;
22648;SDS011;11491;41.942;24.220;2023-09-08T02:43:26;14.98;;;13.27;;
22648;SDS011;11491;41.942;24.220;2023-09-08T02:45:53;14.32;;;12.82;;
22648;SDS011;11491;41.942;24.220;2023-09-08T02:48:21;21.00;;;12.05;;
22648;SDS011;11491;41.942;24.220;2023-09-08T02:50:48;19.00;;;11.48;;
22648;SDS011;11491;41.942;24.220;2023-09-08T02:53:15;16.55;;;12.60;;
22648;SDS011;11491;41.942;24.220;2023-09-08T02:55:42;21.00;;;12.55;;
22648;SDS011;11491;41.942;24.220;2023-09-08T02:58:08;23.80;;;12.15;;
22648;SDS011;11491;41.942;24.220;2023-09-08T03:00:35;17.90;;;12.40;;
22648;SDS011;11491;41.942;24.220;2023-09-08T03:03:02;17.85;;;11.90;;
22648;SDS011;11491;41.942;24.220;2023-09-08T03:05:31;18.88;;;11.48;;
22648;SDS011;11491;41.942;24.220;2023-09-08T03:07:58;15.55;;;11.70;;
22648;SDS011;11491;41.942;24.220;2023-09-08T03:10:25;17.52;;;12.40;;
22648;SDS011;11491;41.942;24.220;2023-09-08T03:15:28;18.23;;;12.80;;
22648;SDS011;11491;41.942;24.220;2023-09-08T03:17:59;16.98;;;12.88;;
22648;SDS011;11491;41.942;24.220;2023-09-08T03:20:53;19.50;;;13.02;;
22648;SDS011;11491;41.942;24.220;2023-09-08T03:23:20;17.88;;;12.45;;
22648;SDS011;11491;41.942;24.220;2023-09-08T03:31:40;15.48;;;11.38;;
22648;SDS011;11491;41.942;24.220;2023-09-08T04:10:35;15.85;;;10.32;;
22648;SDS011;11491;41.942;24.220;2023-09-08T04:15:37;23.33;;;13.05;;
22648;SDS011;11491;41.942;24.220;2023-09-08T04:18:07;17.23;;;11.77;;
22648;SDS011;11491;41.942;24.220;2023-09-08T04:20:36;13.02;;;11.18;;
22648;SDS011;11491;41.942;24.220;2023-09-08T04:23:03;22.40;;;11.80;;
22648;SDS011;11491;41.942;24.220;2023-09-08T04:25:30;17.40;;;12.10;;
22648;SDS011;11491;41.942;24.220;2023-09-08T04:27:58;24.83;;;21.42;;
22648;SDS011;11491;41.942;24.220;2023-09-08T04:30:26;23.30;;;17.30;;
22648;SDS011;11491;41.942;24.220;2023-09-08T04:32:53;20.30;;;14.05;;
22648;SDS011;11491;41.942;24.220;2023-09-08T04:35:21;18.02;;;12.02;;
22648;SDS011;11491;41.942;24.220;2023-09-08T04:37:52;15.90;;;11.88;;
22648;SDS011;11491;41.942;24.220;2023-09-08T04:40:19;18.00;;;10.57;;
22648;SDS011;11491;41.942;24.220;2023-09-08T04:43:03;16.45;;;12.52;;
22648;SDS011;11491;41.942;24.220;2023-09-08T04:45:30;21.58;;;16.13;;
22648;SDS011;11491;41.942;24.220;2023-09-08T04:47:58;29.00;;;20.60;;
22648;SDS011;11491;41.942;24.220;2023-09-08T04:50:38;26.90;;;19.75;;
22648;SDS011;11491;41.942;24.220;2023-09-08T04:53:06;26.27;;;19.73;;
22648;SDS011;11491;41.942;24.220;2023-09-08T04:55:37;22.95;;;18.10;;
22648;SDS011;11491;41.942;24.220;2023-09-08T04:58:05;24.20;;;16.02;;
22648;SDS011;11491;41.942;24.220;2023-09-08T05:00:33;21.00;;;14.85;;
22648;SDS011;11491;41.942;24.220;2023-09-08T05:03:00;17.17;;;13.80;;
22648;SDS011;11491;41.942;24.220;2023-09-08T05:05:26;18.88;;;13.40;;
22648;SDS011;11491;41.942;24.220;2023-09-08T05:07:53;19.30;;;14.43;;
22648;SDS011;11491;41.942;24.220;2023-09-08T05:10:21;17.75;;;13.68;;
22648;SDS011;11491;41.942;24.220;2023-09-08T05:12:48;18.52;;;14.60;;
22648;SDS011;11491;41.942;24.220;2023-09-08T05:15:16;18.10;;;14.10;;
22648;SDS011;11491;41.942;24.220;2023-09-08T05:17:46;18.77;;;13.10;;
22648;SDS011;11491;41.942;24.220;2023-09-08T05:20:13;15.32;;;13.18;;
22648;SDS011;11491;41.942;24.220;2023-09-08T05:22:40;16.83;;;13.20;;
22648;SDS011;11491;41.942;24.220;2023-09-08T05:25:07;22.38;;;14.13;;
22648;SDS011;11491;41.942;24.220;2023-09-08T05:27:44;18.92;;;14.32;;
22648;SDS011;11491;41.942;24.220;2023-09-08T05:30:16;19.98;;;13.35;;
22648;SDS011;11491;41.942;24.220;2023-09-08T05:32:55;32.80;;;20.73;;
22648;SDS011;11491;41.942;24.220;2023-09-08T05:35:22;26.55;;;18.98;;
22648;SDS011;11491;41.942;24.220;2023-09-08T05:38:06;24.55;;;18.75;;
22648;SDS011;11491;41.942;24.220;2023-09-08T05:40:34;26.40;;;19.20;;
22648;SDS011;11491;41.942;24.220;2023-09-08T05:43:01;28.00;;;17.92;;
22648;SDS011;11491;41.942;24.220;2023-09-08T05:45:29;21.92;;;16.55;;
22648;SDS011;11491;41.942;24.220;2023-09-08T05:47:58;23.30;;;18.83;;
22648;SDS011;11491;41.942;24.220;2023-09-08T05:50:25;23.10;;;17.48;;
22648;SDS011;11491;41.942;24.220;2023-09-08T05:53:00;27.35;;;18.38;;
22648;SDS011;11491;41.942;24.220;2023-09-08T05:55:29;26.08;;;18.33;;
22648;SDS011;11491;41.942;24.220;2023-09-08T05:58:00;25.42;;;17.48;;
22648;SDS011;11491;41.942;24.220;2023-09-08T06:00:31;14.27;;;11.95;;
22648;SDS011;11491;41.942;24.220;2023-09-08T06:02:58;19.23;;;11.70;;
22648;SDS011;11491;41.942;24.220;2023-09-08T06:05:25;13.98;;;11.55;;
22648;SDS011;11491;41.942;24.220;2023-09-08T06:07:52;14.63;;;10.80;;
22648;SDS011;11491;41.942;24.220;2023-09-08T06:10:19;12.23;;;10.93;;
22648;SDS011;11491;41.942;24.220;2023-09-08T06:12:46;17.25;;;12.98;;
22648;SDS011;11491;41.942;24.220;2023-09-08T06:15:15;17.77;;;14.13;;
22648;SDS011;11491;41.942;24.220;2023-09-08T06:17:44;24.33;;;16.08;;
22648;SDS011;11491;41.942;24.220;2023-09-08T06:20:12;16.98;;;14.07;;
22648;SDS011;11491;41.942;24.220;2023-09-08T06:22:38;16.83;;;13.80;;
22648;SDS011;11491;41.942;24.220;2023-09-08T06:25:05;17.80;;;14.98;;
22648;SDS011;11491;41.942;24.220;2023-09-08T06:27:32;20.48;;;14.82;;
22648;SDS011;11491;41.942;24.220;2023-09-08T06:29:59;25.00;;;19.02;;
22648;SDS011;11491;41.942;24.220;2023-09-08T06:32:26;29.63;;;23.20;;
22648;SDS011;11491;41.942;24.220;2023-09-08T06:34:54;32.20;;;27.23;;
22648;SDS011;11491;41.942;24.220;2023-09-08T06:37:21;26.27;;;21.50;;
22648;SDS011;11491;41.942;24.220;2023-09-08T06:39:48;26.60;;;16.63;;
22648;SDS011;11491;41.942;24.220;2023-09-08T06:42:14;20.83;;;17.95;;
22648;SDS011;11491;41.942;24.220;2023-09-08T06:44:41;21.42;;;18.48;;
22648;SDS011;11491;41.942;24.220;2023-09-08T06:47:08;22.17;;;17.10;;
22648;SDS011;11491;41.942;24.220;2023-09-08T06:49:35;16.15;;;13.40;;
22648;SDS011;11491;41.942;24.220;2023-09-08T06:52:03;11.45;;;8.48;;
22648;SDS011;11491;41.942;24.220;2023-09-08T06:54:31;12.35;;;9.65;;
22648;SDS011;11491;41.942;24.220;2023-09-08T06:56:58;14.23;;;8.75;;
22648;SDS011;11491;41.942;24.220;2023-09-08T06:59:24;12.73;;;8.80;;
22648;SDS011;11491;41.942;24.220;2023-09-08T07:01:51;10.07;;;6.97;;
22648;SDS011;11491;41.942;24.220;2023-09-08T07:04:18;8.73;;;7.47;;
22648;SDS011;11491;41.942;24.220;2023-09-08T07:06:44;7.75;;;6.78;;
22648;SDS011;11491;41.942;24.220;2023-09-08T07:09:13;9.80;;;7.30;;
22648;SDS011;11491;41.942;24.220;2023-09-08T07:11:39;9.82;;;6.88;;
22648;SDS011;11491;41.942;24.220;2023-09-08T07:14:06;7.00;;;6.22;;
22648;SDS011;11491;41.942;24.220;2023-09-08T07:16:33;11.55;;;7.68;;
22648;SDS011;11491;41.942;24.220;2023-09-08T07:19:01;12.25;;;8.75;;
22648;SDS011;11491;41.942;24.220;2023-09-08T07:21:27;9.43;;;6.30;;
22648;SDS011;11491;41.942;24.220;2023-09-08T07:23:54;8.77;;;6.53;;
22648;SDS011;11491;41.942;24.220;2023-09-08T07:26:22;21.80;;;9.70;;
22648;SDS011;11491;41.942;24.220;2023-09-08T07:28:49;17.08;;;10.30;;
22648;SDS011;11491;41.942;24.220;2023-09-08T07:31:16;11.30;;;9.30;;
22648;SDS011;11491;41.942;24.220;2023-09-08T07:33:43;16.80;;;9.82;;
22648;SDS011;11491;41.942;24.220;2023-09-08T07:36:10;12.40;;;9.20;;
22648;SDS011;11491;41.942;24.220;2023-09-08T07:38:37;8.63;;;6.63;;
22648;SDS011;11491;41.942;24.220;2023-09-08T07:41:03;6.95;;;6.22;;
22648;SDS011;11491;41.942;24.220;2023-09-08T07:43:31;10.73;;;6.25;;
22648;SDS011;11491;41.942;24.220;2023-09-08T07:45:58;7.55;;;5.80;;
22648;SDS011;11491;41.942;24.220;2023-09-08T07:48:25;14.25;;;7.32;;
22648;SDS011;11491;41.942;24.220;2023-09-08T07:50:52;12.77;;;5.85;;
22648;SDS011;11491;41.942;24.220;2023-09-08T07:53:18;9.85;;;6.00;;
22648;SDS011;11491;41.942;24.220;2023-09-08T07:55:46;7.55;;;6.38;;
22648;SDS011;11491;41.942;24.220;2023-09-08T07:58:13;8.18;;;5.88;;
22648;SDS011;11491;41.942;24.220;2023-09-08T08:00:41;7.32;;;5.93;;
22648;SDS011;11491;41.942;24.220;2023-09-08T08:03:08;7.30;;;6.03;;
22648;SDS011;11491;41.942;24.220;2023-09-08T08:05:35;8.38;;;5.72;;
22648;SDS011;11491;41.942;24.220;2023-09-08T08:08:02;7.60;;;6.07;;
22648;SDS011;11491;41.942;24.220;2023-09-08T08:10:29;9.88;;;6.38;;
22648;SDS011;11491;41.942;24.220;2023-09-08T08:12:56;8.18;;;6.38;;
22648;SDS011;11491;41.942;24.220;2023-09-08T08:15:33;9.55;;;6.10;;
22648;SDS011;11491;41.942;24.220;2023-09-08T08:18:03;10.10;;;5.50;;
22648;SDS011;11491;41.942;24.220;2023-09-08T08:20:30;10.35;;;5.85;;
22648;SDS011;11491;41.942;24.220;2023-09-08T08:22:59;7.22;;;5.80;;
22648;SDS011;11491;41.942;24.220;2023-09-08T08:25:26;9.48;;;7.47;;
22648;SDS011;11491;41.942;24.220;2023-09-08T08:27:53;8.43;;;6.05;;
22648;SDS011;11491;41.942;24.220;2023-09-08T08:30:21;8.38;;;6.60;;
22648;SDS011;11491;41.942;24.220;2023-09-08T08:32:48;10.27;;;6.72;;
22648;SDS011;11491;41.942;24.220;2023-09-08T08:35:17;10.05;;;6.72;;
22648;SDS011;11491;41.942;24.220;2023-09-08T08:37:44;7.47;;;6.20;;
22648;SDS011;11491;41.942;24.220;2023-09-08T08:40:11;11.30;;;6.30;;
22648;SDS011;11491;41.942;24.220;2023-09-08T08:42:39;11.45;;;6.03;;
22648;SDS011;11491;41.942;24.220;2023-09-08T08:45:06;10.73;;;6.55;;
22648;SDS011;11491;41.942;24.220;2023-09-08T08:47:34;9.65;;;5.93;;
22648;SDS011;11491;41.942;24.220;2023-09-08T08:50:00;8.13;;;5.90;;
22648;SDS011;11491;41.942;24.220;2023-09-08T08:52:30;11.57;;;6.68;;
22648;SDS011;11491;41.942;24.220;2023-09-08T08:54:59;7.72;;;5.70;;
22648;SDS011;11491;41.942;24.220;2023-09-08T08:57:26;9.75;;;6.43;;
22648;SDS011;11491;41.942;24.220;2023-09-08T08:59:53;9.32;;;5.47;;
22648;SDS011;11491;41.942;24.220;2023-09-08T09:02:20;7.35;;;5.22;;
22648;SDS011;11491;41.942;24.220;2023-09-08T09:04:48;8.60;;;5.88;;
22648;SDS011;11491;41.942;24.220;2023-09-08T09:07:15;6.78;;;5.00;;
22648;SDS011;11491;41.942;24.220;2023-09-08T09:09:46;9.00;;;5.20;;
22648;SDS011;11491;41.942;24.220;2023-09-08T09:12:13;5.72;;;5.10;;
22648;SDS011;11491;41.942;24.220;2023-09-08T09:14:44;8.88;;;6.50;;
22648;SDS011;11491;41.942;24.220;2023-09-08T09:17:12;8.65;;;5.75;;
22648;SDS011;11491;41.942;24.220;2023-09-08T09:19:40;7.47;;;5.07;;
22648;SDS011;11491;41.942;24.220;2023-09-08T09:22:06;9.23;;;5.40;;
22648;SDS011;11491;41.942;24.220;2023-09-08T09:24:34;7.25;;;5.35;;
22648;SDS011;11491;41.942;24.220;2023-09-08T09:27:05;10.15;;;5.57;;
22648;SDS011;11491;41.942;24.220;2023-09-08T09:29:32;9.30;;;5.20;;
22648;SDS011;11491;41.942;24.220;2023-09-08T09:32:02;9.07;;;5.80;;
22648;SDS011;11491;41.942;24.220;2023-09-08T09:34:30;9.40;;;5.65;;
22648;SDS011;11491;41.942;24.220;2023-09-08T09:36:57;7.18;;;5.30;;
22648;SDS011;11491;41.942;24.220;2023-09-08T09:39:25;12.63;;;5.35;;
22648;SDS011;11491;41.942;24.220;2023-09-08T09:41:53;8.23;;;6.25;;
22648;SDS011;11491;41.942;24.220;2023-09-08T09:44:22;7.65;;;5.28;;
22648;SDS011;11491;41.942;24.220;2023-09-08T09:46:51;8.73;;;5.40;;
22648;SDS011;11491;41.942;24.220;2023-09-08T09:49:18;9.00;;;6.00;;
22648;SDS011;11491;41.942;24.220;2023-09-08T09:51:46;6.72;;;5.20;;
22648;SDS011;11491;41.942;24.220;2023-09-08T09:54:14;10.15;;;5.30;;
22648;SDS011;11491;41.942;24.220;2023-09-08T09:56:41;7.32;;;5.30;;
22648;SDS011;11491;41.942;24.220;2023-09-08T09:59:09;7.72;;;5.70;;
22648;SDS011;11491;41.942;24.220;2023-09-08T10:01:39;8.18;;;5.65;;
22648;SDS011;11491;41.942;24.220;2023-09-08T10:04:07;9.10;;;5.93;;
22648;SDS011;11491;41.942;24.220;2023-09-08T10:06:34;8.43;;;5.90;;
22648;SDS011;11491;41.942;24.220;2023-09-08T10:09:02;8.75;;;6.35;;
22648;SDS011;11491;41.942;24.220;2023-09-08T10:11:34;8.30;;;5.20;;
22648;SDS011;11491;41.942;24.220;2023-09-08T10:14:07;6.85;;;5.25;;
22648;SDS011;11491;41.942;24.220;2023-09-08T10:16:36;7.78;;;5.15;;
22648;SDS011;11491;41.942;24.220;2023-09-08T10:19:07;7.10;;;5.32;;
22648;SDS011;11491;41.942;24.220;2023-09-08T10:21:36;9.65;;;5.63;;
22648;SDS011;11491;41.942;24.220;2023-09-08T10:24:09;6.50;;;4.80;;
22648;SDS011;11491;41.942;24.220;2023-09-08T10:26:43;5.78;;;4.65;;
22648;SDS011;11491;41.942;24.220;2023-09-08T10:29:11;7.25;;;5.60;;
22648;SDS011;11491;41.942;24.220;2023-09-08T10:31:40;10.40;;;5.47;;
22648;SDS011;11491;41.942;24.220;2023-09-08T10:34:07;9.68;;;5.78;;
22648;SDS011;11491;41.942;24.220;2023-09-08T10:36:35;7.78;;;5.38;;
22648;SDS011;11491;41.942;24.220;2023-09-08T10:39:27;7.53;;;5.07;;
22648;SDS011;11491;41.942;24.220;2023-09-08T10:45:01;9.07;;;6.00;;
22648;SDS011;11491;41.942;24.220;2023-09-08T10:47:54;7.82;;;5.50;;
22648;SDS011;11491;41.942;24.220;2023-09-08T10:50:27;12.82;;;6.07;;
22648;SDS011;11491;41.942;24.220;2023-09-08T10:53:05;6.50;;;5.47;;
22648;SDS011;11491;41.942;24.220;2023-09-08T10:55:35;7.88;;;5.72;;
22648;SDS011;11491;41.942;24.220;2023-09-08T10:58:03;7.93;;;6.20;;
22648;SDS011;11491;41.942;24.220;2023-09-08T11:00:42;11.23;;;7.22;;
22648;SDS011;11491;41.942;24.220;2023-09-08T11:03:11;10.23;;;6.25;;
22648;SDS011;11491;41.942;24.220;2023-09-08T11:05:38;8.55;;;5.85;;
22648;SDS011;11491;41.942;24.220;2023-09-08T11:08:05;14.73;;;9.52;;
22648;SDS011;11491;41.942;24.220;2023-09-08T11:10:32;10.15;;;7.65;;
22648;SDS011;11491;41.942;24.220;2023-09-08T11:13:00;14.23;;;8.93;;
22648;SDS011;11491;41.942;24.220;2023-09-08T11:15:28;10.55;;;7.18;;
22648;SDS011;11491;41.942;24.220;2023-09-08T11:17:55;9.38;;;5.57;;
22648;SDS011;11491;41.942;24.220;2023-09-08T11:20:27;7.90;;;5.15;;
22648;SDS011;11491;41.942;24.220;2023-09-08T11:22:54;8.80;;;7.25;;
22648;SDS011;11491;41.942;24.220;2023-09-08T11:25:21;12.27;;;6.82;;
22648;SDS011;11491;41.942;24.220;2023-09-08T11:27:48;14.55;;;8.25;;
22648;SDS011;11491;41.942;24.220;2023-09-08T11:30:15;16.05;;;11.13;;
22648;SDS011;11491;41.942;24.220;2023-09-08T11:32:42;14.23;;;9.55;;
22648;SDS011;11491;41.942;24.220;2023-09-08T11:35:09;8.48;;;5.05;;
22648;SDS011;11491;41.942;24.220;2023-09-08T11:37:39;9.48;;;5.38;;
22648;SDS011;11491;41.942;24.220;2023-09-08T11:40:07;6.82;;;4.75;;
22648;SDS011;11491;41.942;24.220;2023-09-08T11:42:37;5.97;;;4.68;;
22648;SDS011;11491;41.942;24.220;2023-09-08T11:45:09;5.05;;;4.00;;
22648;SDS011;11491;41.942;24.220;2023-09-08T11:47:39;8.30;;;4.72;;
22648;SDS011;11491;41.942;24.220;2023-09-08T11:50:07;5.65;;;4.65;;
22648;SDS011;11491;41.942;24.220;2023-09-08T11:52:36;6.82;;;4.18;;
22648;SDS011;11491;41.942;24.220;2023-09-08T11:55:06;6.63;;;4.40;;
22648;SDS011;11491;41.942;24.220;2023-09-08T11:57:33;51.95;;;34.67;;
22648;SDS011;11491;41.942;24.220;2023-09-08T12:00:00;101.05;;;83.68;;
22648;SDS011;11491;41.942;24.220;2023-09-08T12:02:33;10.27;;;4.68;;
22648;SDS011;11491;41.942;24.220;2023-09-08T12:05:00;8.15;;;5.57;;
22648;SDS011;11491;41.942;24.220;2023-09-08T12:07:27;6.70;;;4.57;;
22648;SDS011;11491;41.942;24.220;2023-09-08T12:09:56;4.60;;;4.15;;
22648;SDS011;11491;41.942;24.220;2023-09-08T12:12:24;7.13;;;4.63;;
22648;SDS011;11491;41.942;24.220;2023-09-08T12:14:51;7.20;;;4.30;;
22648;SDS011;11491;41.942;24.220;2023-09-08T12:17:18;7.38;;;4.40;;
22648;SDS011;11491;41.942;24.220;2023-09-08T12:19:49;17.23;;;13.18;;
22648;SDS011;11491;41.942;24.220;2023-09-08T12:22:16;9.85;;;8.50;;
22648;SDS011;11491;41.942;24.220;2023-09-08T12:24:47;9.25;;;8.45;;
22648;SDS011;11491;41.942;24.220;2023-09-08T12:27:18;8.35;;;6.72;;
22648;SDS011;11491;41.942;24.220;2023-09-08T12:29:52;4.93;;;4.40;;
22648;SDS011;11491;41.942;24.220;2023-09-08T12:32:20;6.45;;;4.00;;
22648;SDS011;11491;41.942;24.220;2023-09-08T12:34:47;5.72;;;4.10;;
22648;SDS011;11491;41.942;24.220;2023-09-08T12:37:13;5.05;;;4.00;;
22648;SDS011;11491;41.942;24.220;2023-09-08T12:39:40;5.85;;;3.92;;
22648;SDS011;11491;41.942;24.220;2023-09-08T12:42:07;6.18;;;4.15;;
22648;SDS011;11491;41.942;24.220;2023-09-08T12:44:35;8.07;;;4.80;;
22648;SDS011;11491;41.942;24.220;2023-09-08T12:47:02;5.22;;;4.30;;
22648;SDS011;11491;41.942;24.220;2023-09-08T12:49:29;5.47;;;4.28;;
22648;SDS011;11491;41.942;24.220;2023-09-08T12:51:55;6.22;;;3.70;;
22648;SDS011;11491;41.942;24.220;2023-09-08T12:54:22;9.38;;;4.68;;
22648;SDS011;11491;41.942;24.220;2023-09-08T12:56:49;6.03;;;4.43;;
22648;SDS011;11491;41.942;24.220;2023-09-08T12:59:16;8.05;;;5.18;;
22648;SDS011;11491;41.942;24.220;2023-09-08T13:01:44;9.02;;;4.82;;
22648;SDS011;11491;41.942;24.220;2023-09-08T13:04:10;6.05;;;4.40;;
22648;SDS011;11491;41.942;24.220;2023-09-08T13:06:37;8.27;;;4.63;;
22648;SDS011;11491;41.942;24.220;2023-09-08T13:09:04;6.97;;;4.88;;
22648;SDS011;11491;41.942;24.220;2023-09-08T13:11:31;5.70;;;4.60;;
22648;SDS011;11491;41.942;24.220;2023-09-08T13:13:58;5.40;;;4.03;;
22648;SDS011;11491;41.942;24.220;2023-09-08T13:16:24;5.25;;;4.20;;
22648;SDS011;11491;41.942;24.220;2023-09-08T13:18:52;5.45;;;4.32;;
22648;SDS011;11491;41.942;24.220;2023-09-08T13:21:20;6.35;;;3.70;;
22648;SDS011;11491;41.942;24.220;2023-09-08T13:23:47;5.80;;;4.30;;
22648;SDS011;11491;41.942;24.220;2023-09-08T13:26:13;5.07;;;4.07;;
22648;SDS011;11491;41.942;24.220;2023-09-08T13:28:40;4.25;;;3.58;;
22648;SDS011;11491;41.942;24.220;2023-09-08T13:31:07;8.35;;;5.00;;
22648;SDS011;11491;41.942;24.220;2023-09-08T13:33:33;8.40;;;3.72;;
22648;SDS011;11491;41.942;24.220;2023-09-08T13:36:02;9.70;;;3.72;;
22648;SDS011;11491;41.942;24.220;2023-09-08T13:38:28;8.18;;;4.28;;
22648;SDS011;11491;41.942;24.220;2023-09-08T13:40:55;5.07;;;3.92;;
22648;SDS011;11491;41.942;24.220;2023-09-08T13:43:22;4.93;;;4.07;;
22648;SDS011;11491;41.942;24.220;2023-09-08T13:45:49;4.70;;;4.05;;
22648;SDS011;11491;41.942;24.220;2023-09-08T13:48:15;8.10;;;3.92;;
22648;SDS011;11491;41.942;24.220;2023-09-08T13:50:42;6.75;;;4.38;;
22648;SDS011;11491;41.942;24.220;2023-09-08T13:53:10;5.05;;;4.05;;
22648;SDS011;11491;41.942;24.220;2023-09-08T13:55:37;10.73;;;4.30;;
22648;SDS011;11491;41.942;24.220;2023-09-08T13:58:04;4.95;;;4.40;;
22648;SDS011;11491;41.942;24.220;2023-09-08T14:00:30;6.35;;;3.70;;
22648;SDS011;11491;41.942;24.220;2023-09-08T14:02:57;5.97;;;3.97;;
22648;SDS011;11491;41.942;24.220;2023-09-08T14:05:24;4.82;;;3.80;;
22648;SDS011;11491;41.942;24.220;2023-09-08T14:07:50;5.68;;;4.10;;
22648;SDS011;11491;41.942;24.220;2023-09-08T14:10:19;6.57;;;4.20;;
22648;SDS011;11491;41.942;24.220;2023-09-08T14:12:45;7.10;;;4.57;;
22648;SDS011;11491;41.942;24.220;2023-09-08T14:15:12;6.95;;;4.85;;
22648;SDS011;11491;41.942;24.220;2023-09-08T14:17:40;7.70;;;4.68;;
22648;SDS011;11491;41.942;24.220;2023-09-08T14:20:07;6.70;;;4.40;;
22648;SDS011;11491;41.942;24.220;2023-09-08T14:22:35;6.40;;;4.65;;
22648;SDS011;11491;41.942;24.220;2023-09-08T14:25:02;8.13;;;5.50;;
22648;SDS011;11491;41.942;24.220;2023-09-08T14:27:31;6.57;;;4.55;;
22648;SDS011;11491;41.942;24.220;2023-09-08T14:29:58;6.15;;;3.97;;
22648;SDS011;11491;41.942;24.220;2023-09-08T14:32:25;5.28;;;3.95;;
22648;SDS011;11491;41.942;24.220;2023-09-08T14:34:52;6.90;;;4.38;;
22648;SDS011;11491;41.942;24.220;2023-09-08T14:37:18;5.53;;;3.97;;
22648;SDS011;11491;41.942;24.220;2023-09-08T14:39:45;4.00;;;3.60;;
22648;SDS011;11491;41.942;24.220;2023-09-08T14:42:12;11.10;;;4.32;;
22648;SDS011;11491;41.942;24.220;2023-09-08T14:44:41;8.50;;;3.88;;
22648;SDS011;11491;41.942;24.220;2023-09-08T14:47:08;6.68;;;3.88;;
22648;SDS011;11491;41.942;24.220;2023-09-08T14:49:35;4.47;;;3.90;;
22648;SDS011;11491;41.942;24.220;2023-09-08T14:52:02;6.72;;;4.82;;
22648;SDS011;11491;41.942;24.220;2023-09-08T14:54:28;8.25;;;4.07;;
22648;SDS011;11491;41.942;24.220;2023-09-08T14:56:55;7.32;;;3.58;;
22648;SDS011;11491;41.942;24.220;2023-09-08T14:59:22;9.00;;;5.60;;
22648;SDS011;11491;41.942;24.220;2023-09-08T15:01:52;7.13;;;4.95;;
22648;SDS011;11491;41.942;24.220;2023-09-08T15:04:21;6.95;;;4.50;;
22648;SDS011;11491;41.942;24.220;2023-09-08T15:06:48;11.57;;;6.10;;
22648;SDS011;11491;41.942;24.220;2023-09-08T15:09:15;5.50;;;4.68;;
22648;SDS011;11491;41.942;24.220;2023-09-08T15:11:42;7.60;;;4.63;;
22648;SDS011;11491;41.942;24.220;2023-09-08T15:14:09;7.30;;;5.00;;
22648;SDS011;11491;41.942;24.220;2023-09-08T15:16:36;6.43;;;4.57;;
22648;SDS011;11491;41.942;24.220;2023-09-08T15:19:04;9.52;;;4.10;;